sensor_id;sensor_type;location;lat;lon;timestamp;pressure;altitude;pressure_sealevel;temperature;humidity
49461;BME280;35355;49.198;-0.368;2022-11-15T00:01:43;100189.75;;;10.49;83.61
49461;BME280;35355;49.198;-0.368;2022-11-15T00:04:09;100194.13;;;10.50;83.87
49461;BME280;35355;49.198;-0.368;2022-11-15T00:06:35;100185.66;;;10.52;83.80
49461;BME280;35355;49.198;-0.368;2022-11-15T00:09:01;100181.84;;;10.53;83.70
49461;BME280;35355;49.198;-0.368;2022-11-15T00:11:27;100173.09;;;10.56;83.41
49461;BME280;35355;49.198;-0.368;2022-11-15T00:13:57;100167.09;;;10.59;83.40
49461;BME280;35355;49.198;-0.368;2022-11-15T00:16:23;100160.84;;;10.59;83.01
49461;BME280;35355;49.198;-0.368;2022-11-15T00:18:48;100164.38;;;10.59;83.24
49461;BME280;35355;49.198;-0.368;2022-11-15T00:21:14;100167.09;;;10.59;83.32
49461;BME280;35355;49.198;-0.368;2022-11-15T00:23:40;100150.72;;;10.59;82.88
49461;BME280;35355;49.198;-0.368;2022-11-15T00:26:06;100148.28;;;10.58;83.15
49461;BME280;35355;49.198;-0.368;2022-11-15T00:28:32;100143.38;;;10.55;83.07
49461;BME280;35355;49.198;-0.368;2022-11-15T00:31:02;100136.00;;;10.50;82.83
49461;BME280;35355;49.198;-0.368;2022-11-15T00:33:28;100117.47;;;10.47;83.23
49461;BME280;35355;49.198;-0.368;2022-11-15T00:35:53;100116.66;;;10.41;82.81
49461;BME280;35355;49.198;-0.368;2022-11-15T00:38:18;100103.84;;;10.37;82.97
49461;BME280;35355;49.198;-0.368;2022-11-15T00:40:44;100101.09;;;10.31;83.01
49461;BME280;35355;49.198;-0.368;2022-11-15T00:43:09;100098.09;;;10.28;82.67
49461;BME280;35355;49.198;-0.368;2022-11-15T00:45:34;100088.81;;;10.24;82.88
49461;BME280;35355;49.198;-0.368;2022-11-15T00:48:00;100082.28;;;10.19;83.06
49461;BME280;35355;49.198;-0.368;2022-11-15T00:50:25;100081.75;;;10.17;83.08
49461;BME280;35355;49.198;-0.368;2022-11-15T00:52:50;100071.66;;;10.13;82.96
49461;BME280;35355;49.198;-0.368;2022-11-15T00:55:17;100076.28;;;10.12;83.01
49461;BME280;35355;49.198;-0.368;2022-11-15T00:57:42;100068.66;;;10.09;82.92
49461;BME280;35355;49.198;-0.368;2022-11-15T01:00:09;100056.94;;;10.04;82.79
49461;BME280;35355;49.198;-0.368;2022-11-15T01:02:34;100051.75;;;10.02;82.75
49461;BME280;35355;49.198;-0.368;2022-11-15T01:05:00;100049.31;;;10.00;82.96
49461;BME280;35355;49.198;-0.368;2022-11-15T01:07:25;100041.69;;;9.97;82.82
49461;BME280;35355;49.198;-0.368;2022-11-15T01:09:50;100038.44;;;9.95;83.10
49461;BME280;35355;49.198;-0.368;2022-11-15T01:12:16;100024.25;;;9.93;83.18
49461;BME280;35355;49.198;-0.368;2022-11-15T01:14:41;100024.25;;;9.93;82.80
49461;BME280;35355;49.198;-0.368;2022-11-15T01:17:06;100016.63;;;9.90;83.26
49461;BME280;35355;49.198;-0.368;2022-11-15T01:19:32;100016.09;;;9.88;82.81
49461;BME280;35355;49.198;-0.368;2022-11-15T01:21:57;100009.81;;;9.88;82.76
49461;BME280;35355;49.198;-0.368;2022-11-15T01:24:22;100005.72;;;9.85;82.88
49461;BME280;35355;49.198;-0.368;2022-11-15T01:26:48;100012.00;;;9.86;83.03
49461;BME280;35355;49.198;-0.368;2022-11-15T01:29:13;100007.91;;;9.83;82.77
49461;BME280;35355;49.198;-0.368;2022-11-15T01:31:38;100003.84;;;9.80;82.78
49461;BME280;35355;49.198;-0.368;2022-11-15T01:34:04;99999.19;;;9.81;82.98
49461;BME280;35355;49.198;-0.368;2022-11-15T01:36:29;99994.53;;;9.81;83.01
49461;BME280;35355;49.198;-0.368;2022-11-15T01:38:56;99999.19;;;9.81;82.78
49461;BME280;35355;49.198;-0.368;2022-11-15T01:41:24;99991.81;;;9.81;82.90
49461;BME280;35355;49.198;-0.368;2022-11-15T01:43:53;99981.75;;;9.82;82.76
49461;BME280;35355;49.198;-0.368;2022-11-15T01:46:33;99963.75;;;9.81;82.99
49461;BME280;35355;49.198;-0.368;2022-11-15T01:49:03;99963.22;;;9.79;82.76
49461;BME280;35355;49.198;-0.368;2022-11-15T01:51:32;99957.78;;;9.79;82.60
49461;BME280;35355;49.198;-0.368;2022-11-15T01:54:03;99945.22;;;9.78;83.17
49461;BME280;35355;49.198;-0.368;2022-11-15T01:56:32;99945.78;;;9.75;82.62
49461;BME280;35355;49.198;-0.368;2022-11-15T01:59:03;99947.44;;;9.76;82.76
49461;BME280;35355;49.198;-0.368;2022-11-15T02:01:30;99942.50;;;9.73;82.74
49461;BME280;35355;49.198;-0.368;2022-11-15T02:04:05;99933.25;;;9.74;82.78
49461;BME280;35355;49.198;-0.368;2022-11-15T02:06:34;99928.34;;;9.71;82.61
49461;BME280;35355;49.198;-0.368;2022-11-15T02:09:01;99923.72;;;9.71;82.60
49461;BME280;35355;49.198;-0.368;2022-11-15T02:11:26;99926.16;;;9.73;82.59
49461;BME280;35355;49.198;-0.368;2022-11-15T02:13:52;99920.69;;;9.73;82.43
49461;BME280;35355;49.198;-0.368;2022-11-15T02:26:51;99882.03;;;9.76;82.72
49461;BME280;35355;49.198;-0.368;2022-11-15T02:32:21;99868.94;;;9.73;82.78
49461;BME280;35355;49.198;-0.368;2022-11-15T02:35:01;99865.13;;;9.74;82.82
49461;BME280;35355;49.198;-0.368;2022-11-15T02:37:45;99866.75;;;9.75;82.62
49461;BME280;35355;49.198;-0.368;2022-11-15T02:40:35;99858.03;;;9.78;82.83
49461;BME280;35355;49.198;-0.368;2022-11-15T02:43:12;99837.03;;;9.78;82.44
49461;BME280;35355;49.198;-0.368;2022-11-15T02:49:11;99833.75;;;9.81;82.54
49461;BME280;35355;49.198;-0.368;2022-11-15T02:51:37;99823.69;;;9.82;82.18
49461;BME280;35355;49.198;-0.368;2022-11-15T02:54:03;99826.66;;;9.86;82.42
49461;BME280;35355;49.198;-0.368;2022-11-15T02:56:28;99820.09;;;9.87;82.33
49461;BME280;35355;49.198;-0.368;2022-11-15T02:59:00;99815.19;;;9.89;82.15
49461;BME280;35355;49.198;-0.368;2022-11-15T03:06:59;99794.75;;;9.86;82.34
49461;BME280;35355;49.198;-0.368;2022-11-15T03:09:42;99794.22;;;9.84;82.21
49461;BME280;35355;49.198;-0.368;2022-11-15T03:14:57;99795.84;;;9.85;82.56
49461;BME280;35355;49.198;-0.368;2022-11-15T03:17:32;99800.75;;;9.88;82.30
49461;BME280;35355;49.198;-0.368;2022-11-15T03:20:01;99789.28;;;9.91;82.23
49461;BME280;35355;49.198;-0.368;2022-11-15T03:22:34;99789.81;;;9.93;82.49
49461;BME280;35355;49.198;-0.368;2022-11-15T03:25:04;99779.16;;;9.97;82.15
49461;BME280;35355;49.198;-0.368;2022-11-15T03:27:34;99770.16;;;9.96;82.28
49461;BME280;35355;49.198;-0.368;2022-11-15T03:30:04;99767.44;;;9.96;82.13
49461;BME280;35355;49.198;-0.368;2022-11-15T03:32:34;99758.97;;;9.98;82.27
49461;BME280;35355;49.198;-0.368;2022-11-15T03:35:05;99753.78;;;10.01;82.22
49461;BME280;35355;49.198;-0.368;2022-11-15T03:40:15;99752.13;;;10.06;82.17
49461;BME280;35355;49.198;-0.368;2022-11-15T03:45:44;99741.44;;;10.14;82.24
49461;BME280;35355;49.198;-0.368;2022-11-15T03:48:20;99727.53;;;10.16;82.27
49461;BME280;35355;49.198;-0.368;2022-11-15T03:50:47;99732.97;;;10.16;81.92
49461;BME280;35355;49.198;-0.368;2022-11-15T03:53:13;99728.03;;;10.18;82.26
49461;BME280;35355;49.198;-0.368;2022-11-15T03:55:38;99722.00;;;10.21;82.00
49461;BME280;35355;49.198;-0.368;2022-11-15T03:58:04;99714.09;;;10.25;82.08
49461;BME280;35355;49.198;-0.368;2022-11-15T04:00:29;99719.25;;;10.26;82.21
49461;BME280;35355;49.198;-0.368;2022-11-15T04:02:55;99695.22;;;10.28;82.12
49461;BME280;35355;49.198;-0.368;2022-11-15T04:05:20;99697.38;;;10.31;82.04
49461;BME280;35355;49.198;-0.368;2022-11-15T04:07:45;99703.94;;;10.35;82.22
49461;BME280;35355;49.198;-0.368;2022-11-15T04:10:12;99702.78;;;10.42;82.27
49461;BME280;35355;49.198;-0.368;2022-11-15T04:12:42;99704.66;;;10.46;82.34
49461;BME280;35355;49.198;-0.368;2022-11-15T04:15:11;99697.25;;;10.52;82.24
49461;BME280;35355;49.198;-0.368;2022-11-15T04:17:38;99691.75;;;10.57;82.28
49461;BME280;35355;49.198;-0.368;2022-11-15T04:20:05;99694.13;;;10.64;82.46
49461;BME280;35355;49.198;-0.368;2022-11-15T04:22:52;99677.44;;;10.70;82.68
49461;BME280;35355;49.198;-0.368;2022-11-15T04:25:37;99669.16;;;10.76;82.49
49461;BME280;35355;49.198;-0.368;2022-11-15T04:28:02;99658.50;;;10.79;82.13
49461;BME280;35355;49.198;-0.368;2022-11-15T04:30:27;99667.44;;;10.85;82.28
49461;BME280;35355;49.198;-0.368;2022-11-15T04:32:53;99658.41;;;10.90;82.41
49461;BME280;35355;49.198;-0.368;2022-11-15T04:35:18;99651.50;;;10.92;82.16
49461;BME280;35355;49.198;-0.368;2022-11-15T04:37:43;99642.22;;;10.93;82.15
49461;BME280;35355;49.198;-0.368;2022-11-15T04:40:09;99646.31;;;10.96;81.84
49461;BME280;35355;49.198;-0.368;2022-11-15T04:42:34;99641.06;;;10.99;81.95
49461;BME280;35355;49.198;-0.368;2022-11-15T04:45:00;99641.91;;;11.00;82.17
49461;BME280;35355;49.198;-0.368;2022-11-15T04:47:25;99629.56;;;11.02;81.87
49461;BME280;35355;49.198;-0.368;2022-11-15T04:49:50;99640.47;;;11.02;81.96
49461;BME280;35355;49.198;-0.368;2022-11-15T04:52:16;99644.25;;;11.06;81.68
49461;BME280;35355;49.198;-0.368;2022-11-15T04:54:41;99637.69;;;11.08;81.61
49461;BME280;35355;49.198;-0.368;2022-11-15T04:57:08;99634.13;;;11.07;81.71
49461;BME280;35355;49.198;-0.368;2022-11-15T04:59:33;99630.31;;;11.08;82.03
49461;BME280;35355;49.198;-0.368;2022-11-15T05:01:58;99624.03;;;11.08;81.88
49461;BME280;35355;49.198;-0.368;2022-11-15T05:04:24;99621.31;;;11.08;81.48
49461;BME280;35355;49.198;-0.368;2022-11-15T05:06:50;99610.38;;;11.08;81.63
49461;BME280;35355;49.198;-0.368;2022-11-15T05:09:17;99606.53;;;11.09;82.01
49461;BME280;35355;49.198;-0.368;2022-11-15T05:11:43;99601.06;;;11.09;81.85
49461;BME280;35355;49.198;-0.368;2022-11-15T05:14:08;99604.63;;;11.09;81.62
49461;BME280;35355;49.198;-0.368;2022-11-15T05:16:34;99595.34;;;11.10;82.17
49461;BME280;35355;49.198;-0.368;2022-11-15T05:19:00;99594.50;;;11.10;81.88
49461;BME280;35355;49.198;-0.368;2022-11-15T05:41:46;99545.91;;;10.44;82.37
49461;BME280;35355;49.198;-0.368;2022-11-15T05:44:18;99548.06;;;10.47;82.65
49461;BME280;35355;49.198;-0.368;2022-11-15T05:46:44;99539.25;;;10.56;82.70
49461;BME280;35355;49.198;-0.368;2022-11-15T05:49:12;99541.03;;;10.65;83.34
49461;BME280;35355;49.198;-0.368;2022-11-15T05:51:39;99536.03;;;10.73;83.43
49461;BME280;35355;49.198;-0.368;2022-11-15T05:54:06;99539.72;;;10.82;83.24
49461;BME280;35355;49.198;-0.368;2022-11-15T05:56:32;99531.97;;;10.89;83.34
49461;BME280;35355;49.198;-0.368;2022-11-15T05:58:57;99515.75;;;10.98;83.33
49461;BME280;35355;49.198;-0.368;2022-11-15T06:01:24;99503.16;;;11.02;83.26
49461;BME280;35355;49.198;-0.368;2022-11-15T06:03:50;99495.69;;;11.08;83.44
49461;BME280;35355;49.198;-0.368;2022-11-15T06:06:15;99499.47;;;11.12;83.73
49461;BME280;35355;49.198;-0.368;2022-11-15T06:08:41;99471.25;;;11.16;83.58
49461;BME280;35355;49.198;-0.368;2022-11-15T06:11:07;99482.41;;;11.20;83.51
49461;BME280;35355;49.198;-0.368;2022-11-15T06:13:33;99475.53;;;11.22;83.42
49461;BME280;35355;49.198;-0.368;2022-11-15T06:15:59;99473.31;;;11.24;83.51
49461;BME280;35355;49.198;-0.368;2022-11-15T06:18:25;99453.88;;;11.26;83.58
49461;BME280;35355;49.198;-0.368;2022-11-15T06:20:50;99460.38;;;11.30;83.91
49461;BME280;35355;49.198;-0.368;2022-11-15T06:23:16;99461.19;;;11.31;83.75
49461;BME280;35355;49.198;-0.368;2022-11-15T06:25:41;99462.81;;;11.32;83.31
49461;BME280;35355;49.198;-0.368;2022-11-15T06:28:06;99466.34;;;11.32;83.48
49461;BME280;35355;49.198;-0.368;2022-11-15T06:30:32;99466.56;;;11.36;83.93
49461;BME280;35355;49.198;-0.368;2022-11-15T06:33:03;99458.09;;;11.37;83.65
49461;BME280;35355;49.198;-0.368;2022-11-15T06:35:29;99465.69;;;11.40;83.86
49461;BME280;35355;49.198;-0.368;2022-11-15T06:37:55;99462.66;;;11.42;83.50
49461;BME280;35355;49.198;-0.368;2022-11-15T06:40:21;99446.25;;;11.42;83.93
49461;BME280;35355;49.198;-0.368;2022-11-15T06:42:46;99447.06;;;11.43;83.68
49461;BME280;35355;49.198;-0.368;2022-11-15T06:45:11;99449.78;;;11.43;84.00
49461;BME280;35355;49.198;-0.368;2022-11-15T06:47:44;99442.41;;;11.43;83.94
49461;BME280;35355;49.198;-0.368;2022-11-15T06:50:10;99447.06;;;11.43;84.26
49461;BME280;35355;49.198;-0.368;2022-11-15T06:52:36;99445.94;;;11.44;84.07
49461;BME280;35355;49.198;-0.368;2022-11-15T06:55:01;99451.94;;;11.46;84.27
49461;BME280;35355;49.198;-0.368;2022-11-15T06:57:26;99435.56;;;11.46;84.34
49461;BME280;35355;49.198;-0.368;2022-11-15T06:59:51;99436.84;;;11.48;84.75
49461;BME280;35355;49.198;-0.368;2022-11-15T07:02:17;99440.13;;;11.50;84.65
49461;BME280;35355;49.198;-0.368;2022-11-15T07:04:42;99438.50;;;11.49;84.50
49461;BME280;35355;49.198;-0.368;2022-11-15T07:07:07;99425.31;;;11.51;85.00
49461;BME280;35355;49.198;-0.368;2022-11-15T07:09:33;99427.75;;;11.53;85.17
49461;BME280;35355;49.198;-0.368;2022-11-15T07:11:58;99422.00;;;11.54;84.83
49461;BME280;35355;49.198;-0.368;2022-11-15T07:14:23;99419.25;;;11.54;84.65
49461;BME280;35355;49.198;-0.368;2022-11-15T07:16:49;99409.66;;;11.57;84.74
49461;BME280;35355;49.198;-0.368;2022-11-15T07:19:14;99405.81;;;11.58;84.98
49461;BME280;35355;49.198;-0.368;2022-11-15T07:21:39;99415.13;;;11.57;85.19
49461;BME280;35355;49.198;-0.368;2022-11-15T07:24:05;99417.25;;;11.60;85.17
49461;BME280;35355;49.198;-0.368;2022-11-15T07:26:30;99414.22;;;11.62;84.98
49461;BME280;35355;49.198;-0.368;2022-11-15T07:28:56;99415.84;;;11.63;84.92
49461;BME280;35355;49.198;-0.368;2022-11-15T07:31:21;99410.06;;;11.64;85.32
49461;BME280;35355;49.198;-0.368;2022-11-15T07:33:47;99423.13;;;11.67;85.33
49461;BME280;35355;49.198;-0.368;2022-11-15T07:36:12;99408.66;;;11.67;85.37
49461;BME280;35355;49.198;-0.368;2022-11-15T07:38:38;99410.59;;;11.66;85.27
49461;BME280;35355;49.198;-0.368;2022-11-15T07:41:05;99417.66;;;11.67;85.07
49461;BME280;35355;49.198;-0.368;2022-11-15T07:43:30;99418.19;;;11.69;84.95
49461;BME280;35355;49.198;-0.368;2022-11-15T07:45:58;99408.84;;;11.70;85.12
49461;BME280;35355;49.198;-0.368;2022-11-15T07:48:24;99412.13;;;11.72;85.40
49461;BME280;35355;49.198;-0.368;2022-11-15T07:50:49;99416.75;;;11.72;85.12
49461;BME280;35355;49.198;-0.368;2022-11-15T07:53:15;99407.75;;;11.71;85.38
49461;BME280;35355;49.198;-0.368;2022-11-15T07:55:41;99409.38;;;11.72;85.19
49461;BME280;35355;49.198;-0.368;2022-11-15T07:58:09;99415.97;;;11.71;84.84
49461;BME280;35355;49.198;-0.368;2022-11-15T08:00:34;99406.13;;;11.70;85.15
49461;BME280;35355;49.198;-0.368;2022-11-15T08:03:09;99406.66;;;11.72;84.94
49461;BME280;35355;49.198;-0.368;2022-11-15T08:05:36;99397.94;;;11.70;84.99
49461;BME280;35355;49.198;-0.368;2022-11-15T08:08:01;99400.97;;;11.69;85.05
49461;BME280;35355;49.198;-0.368;2022-11-15T08:10:27;99400.16;;;11.68;85.06
49461;BME280;35355;49.198;-0.368;2022-11-15T08:13:01;99393.06;;;11.67;85.29
49461;BME280;35355;49.198;-0.368;2022-11-15T08:15:27;99398.03;;;11.65;84.92
49461;BME280;35355;49.198;-0.368;2022-11-15T08:17:56;99379.50;;;11.62;85.08
49461;BME280;35355;49.198;-0.368;2022-11-15T08:20:23;99396.41;;;11.64;85.19
49461;BME280;35355;49.198;-0.368;2022-11-15T08:22:49;99385.28;;;11.61;85.31
49461;BME280;35355;49.198;-0.368;2022-11-15T08:25:14;99380.13;;;11.59;84.95
49461;BME280;35355;49.198;-0.368;2022-11-15T08:27:40;99381.81;;;11.55;85.36
49461;BME280;35355;49.198;-0.368;2022-11-15T08:30:05;99373.09;;;11.53;85.35
49461;BME280;35355;49.198;-0.368;2022-11-15T08:32:32;99377.47;;;11.54;85.40
49461;BME280;35355;49.198;-0.368;2022-11-15T08:34:57;99376.13;;;11.51;85.78
49461;BME280;35355;49.198;-0.368;2022-11-15T08:37:23;99375.63;;;11.49;85.65
49461;BME280;35355;49.198;-0.368;2022-11-15T08:39:48;99369.38;;;11.49;85.82
49461;BME280;35355;49.198;-0.368;2022-11-15T08:42:14;99362.78;;;11.50;85.95
49461;BME280;35355;49.198;-0.368;2022-11-15T08:44:41;99384.63;;;11.50;85.67
49461;BME280;35355;49.198;-0.368;2022-11-15T08:47:07;99369.38;;;11.49;85.66
49461;BME280;35355;49.198;-0.368;2022-11-15T08:49:33;99383.53;;;11.51;85.86
49461;BME280;35355;49.198;-0.368;2022-11-15T08:51:59;99375.84;;;11.53;85.88
49461;BME280;35355;49.198;-0.368;2022-11-15T08:54:24;99376.66;;;11.53;85.62
49461;BME280;35355;49.198;-0.368;2022-11-15T08:56:49;99366.53;;;11.54;86.13
49461;BME280;35355;49.198;-0.368;2022-11-15T08:59:15;99368.47;;;11.53;85.84
49461;BME280;35355;49.198;-0.368;2022-11-15T09:01:40;99360.47;;;11.57;86.03
49461;BME280;35355;49.198;-0.368;2022-11-15T09:04:05;99359.34;;;11.58;85.38
49461;BME280;35355;49.198;-0.368;2022-11-15T09:06:31;99356.31;;;11.59;85.60
49461;BME280;35355;49.198;-0.368;2022-11-15T09:08:56;99339.63;;;11.61;85.68
49461;BME280;35355;49.198;-0.368;2022-11-15T09:11:22;99329.47;;;11.62;85.54
49461;BME280;35355;49.198;-0.368;2022-11-15T09:13:48;99325.34;;;11.64;85.77
49461;BME280;35355;49.198;-0.368;2022-11-15T09:16:14;99328.88;;;11.65;85.84
49461;BME280;35355;49.198;-0.368;2022-11-15T09:18:40;99313.81;;;11.67;85.92
49461;BME280;35355;49.198;-0.368;2022-11-15T09:21:06;99304.00;;;11.66;85.60
49461;BME280;35355;49.198;-0.368;2022-11-15T09:23:31;99296.28;;;11.68;85.68
49461;BME280;35355;49.198;-0.368;2022-11-15T09:26:00;99297.41;;;11.67;86.24
49461;BME280;35355;49.198;-0.368;2022-11-15T09:28:27;99282.13;;;11.66;85.82
49461;BME280;35355;49.198;-0.368;2022-11-15T09:31:01;99294.06;;;11.70;85.95
49461;BME280;35355;49.198;-0.368;2022-11-15T09:33:26;99283.72;;;11.67;85.73
49461;BME280;35355;49.198;-0.368;2022-11-15T09:35:52;99272.50;;;11.69;85.76
49461;BME280;35355;49.198;-0.368;2022-11-15T09:38:18;99284.13;;;11.74;85.95
49461;BME280;35355;49.198;-0.368;2022-11-15T09:40:48;99282.72;;;11.77;85.94
49461;BME280;35355;49.198;-0.368;2022-11-15T09:46:36;99262.84;;;11.85;86.12
49461;BME280;35355;49.198;-0.368;2022-11-15T09:49:03;99254.66;;;11.85;86.02
49461;BME280;35355;49.198;-0.368;2022-11-15T09:51:37;99243.41;;;11.87;86.04
49461;BME280;35355;49.198;-0.368;2022-11-15T09:56:53;99246.66;;;11.89;86.36
49461;BME280;35355;49.198;-0.368;2022-11-15T09:59:29;99263.88;;;11.89;86.29
49461;BME280;35355;49.198;-0.368;2022-11-15T10:04:32;99248.88;;;11.87;86.47
49461;BME280;35355;49.198;-0.368;2022-11-15T10:07:04;99232.47;;;11.87;86.40
49461;BME280;35355;49.198;-0.368;2022-11-15T10:09:54;99245.66;;;11.85;86.35
49461;BME280;35355;49.198;-0.368;2022-11-15T10:12:22;99261.56;;;11.83;86.74
49461;BME280;35355;49.198;-0.368;2022-11-15T10:14:50;99266.72;;;11.84;86.98
49461;BME280;35355;49.198;-0.368;2022-11-15T10:17:40;99248.06;;;11.86;86.46
49461;BME280;35355;49.198;-0.368;2022-11-15T10:20:29;99264.16;;;11.88;86.54
49461;BME280;35355;49.198;-0.368;2022-11-15T10:22:59;99258.69;;;11.88;87.05
49461;BME280;35355;49.198;-0.368;2022-11-15T10:25:30;99249.88;;;11.91;86.82
49461;BME280;35355;49.198;-0.368;2022-11-15T10:27:59;99254.78;;;11.94;87.11
49461;BME280;35355;49.198;-0.368;2022-11-15T10:30:46;99244.53;;;12.00;86.85
49461;BME280;35355;49.198;-0.368;2022-11-15T10:35:43;99228.41;;;12.12;87.27
49461;BME280;35355;49.198;-0.368;2022-11-15T10:38:10;99220.88;;;12.18;86.76
49461;BME280;35355;49.198;-0.368;2022-11-15T10:40:38;99218.66;;;12.20;87.14
49461;BME280;35355;49.198;-0.368;2022-11-15T10:45:36;99218.03;;;12.23;87.12
49461;BME280;35355;49.198;-0.368;2022-11-15T10:50:41;99198.25;;;12.26;86.85
49461;BME280;35355;49.198;-0.368;2022-11-15T10:55:47;99202.00;;;12.30;87.00
49461;BME280;35355;49.198;-0.368;2022-11-15T10:58:36;99193.16;;;12.33;86.82
49461;BME280;35355;49.198;-0.368;2022-11-15T11:01:17;99182.53;;;12.32;86.76
49461;BME280;35355;49.198;-0.368;2022-11-15T11:03:45;99181.09;;;12.34;87.17
49461;BME280;35355;49.198;-0.368;2022-11-15T11:06:22;99177.53;;;12.34;87.14
49461;BME280;35355;49.198;-0.368;2022-11-15T11:08:58;99162.59;;;12.40;86.83
49461;BME280;35355;49.198;-0.368;2022-11-15T11:11:26;99165.03;;;12.41;87.01
49461;BME280;35355;49.198;-0.368;2022-11-15T11:14:20;99159.56;;;12.41;87.08
49461;BME280;35355;49.198;-0.368;2022-11-15T11:22:19;99173.75;;;12.43;87.06
49461;BME280;35355;49.198;-0.368;2022-11-15T11:27:24;99171.50;;;12.45;87.10
49461;BME280;35355;49.198;-0.368;2022-11-15T11:30:03;99165.72;;;12.47;87.23
49461;BME280;35355;49.198;-0.368;2022-11-15T11:35:11;99169.44;;;12.51;87.27
49461;BME280;35355;49.198;-0.368;2022-11-15T11:38:02;99168.00;;;12.54;87.03
49461;BME280;35355;49.198;-0.368;2022-11-15T11:40:35;99170.75;;;12.54;87.06
49461;BME280;35355;49.198;-0.368;2022-11-15T11:50:51;99160.16;;;12.61;87.24
49461;BME280;35355;49.198;-0.368;2022-11-15T11:53:31;99153.44;;;12.67;86.98
49461;BME280;35355;49.198;-0.368;2022-11-15T11:56:14;99146.84;;;12.68;86.97
49461;BME280;35355;49.198;-0.368;2022-11-15T11:58:44;99148.44;;;12.69;87.19
49461;BME280;35355;49.198;-0.368;2022-11-15T12:03:57;99138.47;;;12.73;87.04
49461;BME280;35355;49.198;-0.368;2022-11-15T12:06:38;99134.31;;;12.76;87.05
49461;BME280;35355;49.198;-0.368;2022-11-15T12:09:33;99129.31;;;12.78;86.94
49461;BME280;35355;49.198;-0.368;2022-11-15T12:14:48;99119.66;;;12.80;86.97
49461;BME280;35355;49.198;-0.368;2022-11-15T12:17:19;99128.34;;;12.82;87.22
49461;BME280;35355;49.198;-0.368;2022-11-15T12:19:46;99119.03;;;12.84;87.20
49461;BME280;35355;49.198;-0.368;2022-11-15T12:22:24;99123.75;;;12.92;87.00
49461;BME280;35355;49.198;-0.368;2022-11-15T12:25:04;99115.72;;;13.04;87.32
49461;BME280;35355;49.198;-0.368;2022-11-15T12:27:44;99117.84;;;13.16;87.09
49461;BME280;35355;49.198;-0.368;2022-11-15T12:30:16;99108.66;;;13.21;86.99
49461;BME280;35355;49.198;-0.368;2022-11-15T12:32:59;99106.25;;;13.28;86.88
49461;BME280;35355;49.198;-0.368;2022-11-15T12:37:52;99101.63;;;13.37;86.49
49461;BME280;35355;49.198;-0.368;2022-11-15T12:43:39;99105.50;;;13.45;86.60
49461;BME280;35355;49.198;-0.368;2022-11-15T12:46:11;99099.06;;;13.49;86.17
49461;BME280;35355;49.198;-0.368;2022-11-15T12:51:03;99094.22;;;13.64;86.20
49461;BME280;35355;49.198;-0.368;2022-11-15T12:53:32;99101.47;;;13.77;86.13
49461;BME280;35355;49.198;-0.368;2022-11-15T12:58:48;99083.25;;;13.81;85.96
49461;BME280;35355;49.198;-0.368;2022-11-15T13:07:04;99082.13;;;13.82;85.79
49461;BME280;35355;49.198;-0.368;2022-11-15T13:14:51;99079.72;;;13.72;85.74
49461;BME280;35355;49.198;-0.368;2022-11-15T13:17:31;99083.56;;;13.71;85.54
49461;BME280;35355;49.198;-0.368;2022-11-15T13:20:02;99077.44;;;13.74;85.72
49461;BME280;35355;49.198;-0.368;2022-11-15T13:22:38;99071.47;;;13.81;85.84
49461;BME280;35355;49.198;-0.368;2022-11-15T13:27:52;99063.56;;;13.97;85.57
49461;BME280;35355;49.198;-0.368;2022-11-15T13:30:27;99056.91;;;14.07;85.40
49461;BME280;35355;49.198;-0.368;2022-11-15T13:32:54;99043.34;;;14.10;85.34
49461;BME280;35355;49.198;-0.368;2022-11-15T13:35:25;99041.25;;;14.07;85.13
49461;BME280;35355;49.198;-0.368;2022-11-15T13:37:53;99041.25;;;14.07;85.36
49461;BME280;35355;49.198;-0.368;2022-11-15T13:42:50;99038.84;;;14.06;85.32
49461;BME280;35355;49.198;-0.368;2022-11-15T13:45:17;99030.75;;;14.09;85.25
49461;BME280;35355;49.198;-0.368;2022-11-15T13:47:43;99032.19;;;14.15;85.27
49461;BME280;35355;49.198;-0.368;2022-11-15T13:50:12;99034.09;;;14.24;85.25
49461;BME280;35355;49.198;-0.368;2022-11-15T14:12:56;99018.09;;;13.61;85.08
49461;BME280;35355;49.198;-0.368;2022-11-15T14:17:55;99012.13;;;13.67;85.39
49461;BME280;35355;49.198;-0.368;2022-11-15T14:22:58;99012.44;;;13.83;85.57
49461;BME280;35355;49.198;-0.368;2022-11-15T14:25:26;99020.97;;;13.91;85.38
49461;BME280;35355;49.198;-0.368;2022-11-15T14:30:43;99018.69;;;14.01;85.17
49461;BME280;35355;49.198;-0.368;2022-11-15T14:33:21;99031.09;;;14.08;85.20
49461;BME280;35355;49.198;-0.368;2022-11-15T14:35:47;99014.75;;;14.11;85.11
49461;BME280;35355;49.198;-0.368;2022-11-15T14:38:13;99013.47;;;14.17;84.94
49461;BME280;35355;49.198;-0.368;2022-11-15T14:40:39;99013.59;;;14.21;85.05
49461;BME280;35355;49.198;-0.368;2022-11-15T14:43:07;99019.09;;;14.21;84.91
49461;BME280;35355;49.198;-0.368;2022-11-15T14:45:33;99011.69;;;14.13;84.60
49461;BME280;35355;49.198;-0.368;2022-11-15T14:47:59;99011.75;;;14.04;84.91
49461;BME280;35355;49.198;-0.368;2022-11-15T14:50:25;99018.50;;;13.98;84.88
49461;BME280;35355;49.198;-0.368;2022-11-15T14:52:51;99019.50;;;13.93;84.89
49461;BME280;35355;49.198;-0.368;2022-11-15T14:55:26;99009.69;;;13.92;85.04
49461;BME280;35355;49.198;-0.368;2022-11-15T14:58:00;99015.63;;;13.94;84.98
49461;BME280;35355;49.198;-0.368;2022-11-15T15:00:28;99012.41;;;13.92;85.08
49461;BME280;35355;49.198;-0.368;2022-11-15T15:02:54;99011.59;;;13.92;84.94
49461;BME280;35355;49.198;-0.368;2022-11-15T15:05:25;99010.00;;;13.91;85.04
49461;BME280;35355;49.198;-0.368;2022-11-15T15:07:52;98993.38;;;13.87;85.10
49461;BME280;35355;49.198;-0.368;2022-11-15T15:10:20;99002.72;;;13.86;84.86
49461;BME280;35355;49.198;-0.368;2022-11-15T15:12:46;98994.81;;;13.84;84.88
49461;BME280;35355;49.198;-0.368;2022-11-15T15:15:14;99000.19;;;13.81;84.93
49461;BME280;35355;49.198;-0.368;2022-11-15T15:17:40;99010.34;;;13.80;84.92
49461;BME280;35355;49.198;-0.368;2022-11-15T15:20:06;99004.38;;;13.78;84.86
49461;BME280;35355;49.198;-0.368;2022-11-15T15:22:32;99011.78;;;13.78;84.82
49461;BME280;35355;49.198;-0.368;2022-11-15T15:24:58;99001.16;;;13.76;84.82
49461;BME280;35355;49.198;-0.368;2022-11-15T15:27:23;99004.38;;;13.78;85.09